Time;durP1;ratioP1;P1;durP2;ratioP2;P2;SDS_P1;SDS_P2;PMS_P1;PMS_P2;Temp;Humidity;BMP_temperature;BMP_pressure;BME280_temperature;BME280_humidity;BME280_pressure;Samples;Min_cycle;Max_cycle;Signal;HPM_P1;HPM_P2
2021/10/28 00:13:40;;;;;;;31.35;25.25;;;10.60;99.90;;;;;;5091683;28;20050;-80
2021/10/28 00:16:13;;;;;;;37.33;26.33;;;10.60;99.90;;;;;;5086519;27;20040;-80
2021/10/28 00:21:06;;;;;;;36.08;25.45;;;10.60;99.90;;;;;;5099591;27;20099;-80
2021/10/28 00:23:40;;;;;;;30.13;24.00;;;10.60;99.90;;;;;;5078681;28;20105;-80
2021/10/28 00:26:06;;;;;;;36.30;25.50;;;10.60;99.90;;;;;;5075158;27;20088;-79
2021/10/28 00:28:32;;;;;;;37.63;24.75;;;10.60;99.90;;;;;;5083736;28;20043;-80
2021/10/28 00:30:58;;;;;;;31.90;25.10;;;10.60;99.90;;;;;;5092631;28;20749;-80
2021/10/28 00:33:24;;;;;;;37.25;27.20;;;10.60;99.90;;;;;;5074072;27;20069;-80
2021/10/28 00:35:50;;;;;;;30.38;24.80;;;10.60;99.90;;;;;;5094002;27;20054;-80
2021/10/28 00:38:15;;;;;;;32.47;25.58;;;10.60;99.90;;;;;;5077657;27;20027;-80
2021/10/28 00:40:41;;;;;;;36.33;25.67;;;10.60;99.90;;;;;;5064573;27;20091;-80
2021/10/28 00:43:07;;;;;;;37.78;25.55;;;10.50;99.90;;;;;;5073925;27;20040;-80
2021/10/28 00:45:33;;;;;;;35.97;27.00;;;10.50;99.90;;;;;;5058694;27;20031;-79
2021/10/28 00:47:59;;;;;;;31.23;24.23;;;10.50;99.90;;;;;;5082654;28;20635;-80
2021/10/28 00:50:25;;;;;;;35.67;25.35;;;10.50;99.90;;;;;;5081435;28;20130;-79
2021/10/28 00:52:51;;;;;;;31.90;24.13;;;10.50;99.90;;;;;;5090982;27;20055;-81
2021/10/28 00:55:17;;;;;;;31.92;24.65;;;10.50;99.90;;;;;;5093775;27;20046;-80
2021/10/28 00:57:44;;;;;;;33.55;25.88;;;10.50;99.90;;;;;;5099924;28;20044;-80
2021/10/28 01:00:10;;;;;;;38.30;27.65;;;10.50;99.90;;;;;;5083290;27;20041;-72
2021/10/28 01:02:36;;;;;;;34.85;25.70;;;10.50;99.90;;;;;;5087966;27;20489;-73
2021/10/28 01:05:02;;;;;;;31.08;24.48;;;10.50;99.90;;;;;;5086710;28;20051;-72
2021/10/28 01:07:28;;;;;;;36.95;25.88;;;10.40;99.90;;;;;;5100328;28;20114;-73
2021/10/28 01:09:54;;;;;;;37.20;26.35;;;10.50;99.90;;;;;;5066586;27;20220;-73
2021/10/28 01:12:21;;;;;;;27.23;23.30;;;10.50;99.90;;;;;;5077110;28;20401;-72
2021/10/28 01:14:47;;;;;;;33.10;25.88;;;10.40;99.90;;;;;;5098415;27;20589;-72
2021/10/28 01:17:13;;;;;;;29.55;24.55;;;10.40;99.90;;;;;;5102148;28;20043;-73
2021/10/28 01:19:40;;;;;;;31.67;24.30;;;10.40;99.90;;;;;;5056924;28;20071;-72
2021/10/28 01:22:06;;;;;;;37.40;25.20;;;10.40;99.90;;;;;;5058263;27;20047;-73
2021/10/28 01:24:32;;;;;;;38.83;26.08;;;10.40;99.90;;;;;;5098922;28;20555;-72
2021/10/28 01:27:06;;;;;;;33.50;23.83;;;10.30;99.90;;;;;;5080040;27;20046;-80
2021/10/28 01:29:34;;;;;;;35.45;25.42;;;10.30;99.90;;;;;;5089643;28;20050;-81
2021/10/28 01:32:04;;;;;;;33.85;25.63;;;10.30;99.90;;;;;;5094132;28;20405;-80
2021/10/28 01:34:30;;;;;;;33.40;25.63;;;10.30;99.90;;;;;;5083642;28;20043;-80
2021/10/28 01:36:57;;;;;;;37.83;25.88;;;10.30;99.90;;;;;;5099254;28;20046;-78
2021/10/28 01:39:24;;;;;;;38.70;26.42;;;10.30;99.90;;;;;;5097405;28;20043;-79
2021/10/28 01:41:51;;;;;;;36.92;26.67;;;10.30;99.90;;;;;;5073811;28;20043;-80
2021/10/28 01:44:18;;;;;;;34.33;26.05;;;10.20;99.90;;;;;;5096740;27;20035;-79
2021/10/28 01:46:44;;;;;;;37.58;26.40;;;10.30;99.90;;;;;;5086299;28;20039;-80
2021/10/28 01:49:27;;;;;;;37.92;27.27;;;10.20;99.90;;;;;;5069271;27;20567;-80
2021/10/28 01:51:54;;;;;;;36.40;24.83;;;10.20;99.90;;;;;;5088311;28;20071;-80
2021/10/28 01:54:21;;;;;;;34.83;25.65;;;10.20;99.90;;;;;;5076094;27;20459;-73
2021/10/28 01:56:48;;;;;;;34.25;25.92;;;10.20;99.90;;;;;;5080842;28;20027;-70
2021/10/28 01:59:16;;;;;;;31.95;25.02;;;10.20;99.90;;;;;;5085688;28;20028;-70
2021/10/28 02:01:43;;;;;;;34.35;25.25;;;10.20;99.90;;;;;;5085241;28;20057;-70
2021/10/28 02:04:09;;;;;;;34.22;25.67;;;10.20;99.90;;;;;;5098068;28;20043;-69
2021/10/28 02:06:36;;;;;;;35.22;25.83;;;10.20;99.90;;;;;;5071796;28;20054;-69
2021/10/28 02:20:46;;;;;;;33.03;24.27;;;10.10;99.90;;;;;;5060199;22;20052;-72
2021/10/28 02:23:12;;;;;;;31.90;23.88;;;10.10;99.90;;;;;;5022061;28;20055;-72
2021/10/28 02:25:38;;;;;;;30.10;23.80;;;10.00;99.90;;;;;;5029531;28;20048;-71
2021/10/28 02:28:04;;;;;;;32.70;25.20;;;10.00;99.90;;;;;;5039858;28;20131;-72
2021/10/28 02:30:31;;;;;;;36.72;25.13;;;10.10;99.90;;;;;;5025322;28;20635;-72
2021/10/28 02:32:57;;;;;;;34.38;24.17;;;10.10;99.90;;;;;;5021104;28;20057;-72
2021/10/28 02:35:23;;;;;;;31.55;24.67;;;10.10;99.90;;;;;;5016982;28;20570;-72
2021/10/28 02:37:49;;;;;;;30.17;23.85;;;10.00;99.90;;;;;;5002356;28;20040;-72
2021/10/28 02:40:15;;;;;;;30.33;22.88;;;10.00;99.90;;;;;;5015517;28;20702;-72
2021/10/28 02:42:41;;;;;;;31.95;23.42;;;10.00;99.90;;;;;;4995022;28;20045;-72
2021/10/28 02:45:08;;;;;;;37.60;25.00;;;10.00;99.90;;;;;;5027310;28;20051;-72
2021/10/28 02:47:34;;;;;;;29.63;23.70;;;10.00;99.90;;;;;;5021240;28;20044;-72
2021/10/28 02:50:00;;;;;;;31.35;22.45;;;10.00;99.90;;;;;;5046263;28;20499;-72
2021/10/28 02:52:26;;;;;;;30.15;23.33;;;10.00;99.90;;;;;;5014223;28;20045;-72
2021/10/28 02:54:52;;;;;;;34.08;24.33;;;9.90;99.90;;;;;;5010996;28;20463;-72
2021/10/28 02:57:19;;;;;;;32.60;24.33;;;9.90;99.90;;;;;;5026156;28;20750;-72
2021/10/28 02:59:44;;;;;;;31.83;24.80;;;9.90;99.90;;;;;;5010116;28;20128;-72
2021/10/28 03:02:10;;;;;;;32.00;23.75;;;9.90;99.90;;;;;;5010860;28;20132;-72
2021/10/28 03:04:36;;;;;;;30.42;23.40;;;9.80;99.90;;;;;;4996627;28;20033;-72
2021/10/28 03:07:02;;;;;;;31.55;23.08;;;9.80;99.90;;;;;;5026170;28;20049;-73
2021/10/28 03:09:29;;;;;;;30.85;23.90;;;9.90;99.90;;;;;;4993347;28;20053;-72
2021/10/28 03:11:58;;;;;;;34.70;24.25;;;9.80;99.90;;;;;;5015809;28;20048;-72
2021/10/28 03:27:44;;;;;;;32.25;23.95;;;9.70;99.90;;;;;;5031107;28;20064;-72
2021/10/28 03:30:10;;;;;;;36.20;23.58;;;9.70;99.90;;;;;;5039490;28;20524;-72
2021/10/28 03:32:36;;;;;;;31.15;23.20;;;9.70;99.90;;;;;;5018086;28;20074;-72
2021/10/28 03:35:05;;;;;;;27.20;22.17;;;9.70;99.90;;;;;;5033590;28;20147;-72
2021/10/28 03:37:41;;;;;;;32.05;24.80;;;9.70;99.90;;;;;;5050210;28;20052;-70
2021/10/28 03:43:38;;;;;;;30.95;23.67;;;9.70;99.90;;;;;;5012284;28;20057;-70
2021/10/28 04:30:15;;;;;;;28.95;21.15;;;9.30;99.90;;;;;;5008345;28;20053;-71
2021/10/28 04:32:41;;;;;;;34.85;22.75;;;9.30;99.90;;;;;;5017227;28;20128;-70
2021/10/28 04:35:08;;;;;;;27.83;21.60;;;9.30;99.90;;;;;;5018121;28;20045;-70
2021/10/28 04:37:38;;;;;;;30.10;20.88;;;9.30;99.90;;;;;;5012397;28;20046;-71
2021/10/28 04:40:07;;;;;;;28.27;20.27;;;9.30;99.90;;;;;;5027594;28;20642;-71
2021/10/28 04:42:34;;;;;;;29.85;20.90;;;9.30;99.90;;;;;;4995509;28;20052;-71
2021/10/28 04:45:00;;;;;;;27.80;21.40;;;9.30;99.90;;;;;;5026159;28;20508;-71
2021/10/28 04:47:25;;;;;;;26.20;21.13;;;9.30;99.90;;;;;;5026742;28;20351;-71
2021/10/28 04:49:51;;;;;;;28.27;21.13;;;9.20;99.90;;;;;;5012004;28;20041;-71
2021/10/28 04:52:19;;;;;;;33.00;21.98;;;9.20;99.90;;;;;;5046148;28;20056;-71
2021/10/28 04:54:45;;;;;;;33.78;22.83;;;9.20;99.90;;;;;;5024255;28;20046;-71
2021/10/28 04:57:11;;;;;;;30.67;21.35;;;9.20;99.90;;;;;;4993245;28;20096;-71
2021/10/28 04:59:37;;;;;;;29.17;21.58;;;9.20;99.90;;;;;;5026232;28;20058;-71
2021/10/28 05:02:03;;;;;;;29.02;21.52;;;9.20;99.90;;;;;;5025111;28;20069;-72
2021/10/28 05:04:29;;;;;;;27.25;21.88;;;9.10;99.90;;;;;;5029329;28;20041;-71
2021/10/28 05:06:55;;;;;;;29.50;21.90;;;9.10;99.90;;;;;;5017199;28;20045;-71
2021/10/28 05:09:30;;;;;;;33.63;23.27;;;9.10;99.90;;;;;;4993602;28;20042;-71
2021/10/28 05:11:56;;;;;;;29.92;23.20;;;9.10;99.90;;;;;;5035836;28;20059;-70
2021/10/28 05:14:23;;;;;;;32.47;22.88;;;9.10;99.90;;;;;;5028934;28;20045;-71
2021/10/28 05:16:56;;;;;;;32.95;23.27;;;9.10;99.90;;;;;;5044852;28;20057;-71
2021/10/28 05:19:22;;;;;;;28.98;23.17;;;9.10;99.90;;;;;;5029057;28;20060;-71
2021/10/28 05:21:48;;;;;;;29.00;23.48;;;9.00;99.90;;;;;;5030157;28;20053;-72
2021/10/28 05:24:14;;;;;;;29.92;22.92;;;9.00;99.90;;;;;;5008328;28;20037;-71
2021/10/28 05:26:40;;;;;;;29.70;23.10;;;9.00;99.90;;;;;;5009388;28;20499;-71
2021/10/28 05:29:06;;;;;;;34.00;23.83;;;9.00;99.90;;;;;;4992336;28;20062;-72
2021/10/28 05:31:32;;;;;;;30.08;22.02;;;8.90;99.90;;;;;;5045727;28;20140;-71
2021/10/28 05:33:58;;;;;;;31.38;24.23;;;9.00;99.90;;;;;;5028162;28;20040;-71
2021/10/28 05:36:26;;;;;;;30.77;24.63;;;8.90;99.90;;;;;;5011887;28;20044;-71
2021/10/28 05:38:52;;;;;;;30.58;25.15;;;8.90;99.90;;;;;;5036065;28;20049;-71
2021/10/28 05:41:18;;;;;;;35.67;25.10;;;8.90;99.90;;;;;;5009159;28;20053;-71
2021/10/28 05:43:44;;;;;;;33.15;25.92;;;8.90;99.90;;;;;;5008767;28;20049;-71
2021/10/28 05:46:10;;;;;;;35.50;25.63;;;8.90;99.90;;;;;;5029960;28;20076;-71
2021/10/28 05:48:36;;;;;;;33.67;26.17;;;8.90;99.90;;;;;;5009735;28;20392;-71
2021/10/28 05:51:01;;;;;;;34.22;26.15;;;8.80;99.90;;;;;;5025476;28;20048;-70
2021/10/28 05:53:28;;;;;;;35.35;26.92;;;8.80;99.90;;;;;;5025970;28;20107;-71
2021/10/28 05:55:54;;;;;;;38.55;27.40;;;8.80;99.90;;;;;;5009560;28;20190;-71
2021/10/28 05:58:20;;;;;;;41.53;29.15;;;8.80;99.90;;;;;;5008612;28;20068;-71
2021/10/28 06:00:46;;;;;;;38.42;26.98;;;8.80;99.90;;;;;;5013420;28;20083;-71
2021/10/28 06:03:12;;;;;;;40.97;29.17;;;8.80;99.90;;;;;;5043650;28;20068;-70
2021/10/28 06:05:38;;;;;;;40.70;29.38;;;8.80;99.90;;;;;;5015703;28;20041;-70
2021/10/28 06:08:04;;;;;;;40.58;28.98;;;8.80;99.90;;;;;;5030825;28;20119;-71
2021/10/28 06:10:31;;;;;;;40.42;27.95;;;8.70;99.90;;;;;;5033148;28;20049;-71
2021/10/28 06:13:00;;;;;;;39.75;27.60;;;8.80;99.90;;;;;;4995605;28;20495;-70
2021/10/28 06:15:32;;;;;;;39.80;26.17;;;8.70;99.90;;;;;;5021381;28;20574;-71
2021/10/28 06:18:35;;;;;;;38.30;27.48;;;8.70;99.90;;;;;;5013294;28;20041;-71
2021/10/28 06:20:59;;;;;;;45.22;29.15;;;8.70;99.90;;;;;;5010182;28;20450;-71
2021/10/28 06:23:25;;;;;;;47.00;30.33;;;8.70;99.90;;;;;;5007874;28;20045;-71
2021/10/28 06:25:50;;;;;;;42.85;29.50;;;8.70;99.90;;;;;;5009280;28;20041;-71
2021/10/28 06:28:16;;;;;;;43.65;29.98;;;8.60;99.90;;;;;;5011967;28;20128;-71
2021/10/28 06:30:42;;;;;;;43.90;30.90;;;8.60;99.90;;;;;;5019028;28;20140;-71
2021/10/28 06:33:15;;;;;;;41.33;29.33;;;8.60;99.90;;;;;;4991967;28;20049;-71
2021/10/28 06:35:43;;;;;;;41.45;29.25;;;8.60;99.90;;;;;;5000341;28;20041;-71
2021/10/28 06:38:09;;;;;;;38.45;28.55;;;8.60;99.90;;;;;;5005846;28;20980;-71
2021/10/28 06:40:36;;;;;;;41.10;28.45;;;8.60;99.90;;;;;;4991631;28;20049;-71
2021/10/28 06:43:03;;;;;;;44.65;30.25;;;8.60;99.90;;;;;;5009133;28;20096;-71
2021/10/28 06:45:29;;;;;;;44.90;29.10;;;8.60;99.90;;;;;;5008388;28;20128;-72
2021/10/28 06:47:57;;;;;;;43.67;29.45;;;8.60;99.90;;;;;;5015716;28;20045;-71
2021/10/28 06:50:27;;;;;;;46.85;30.08;;;8.60;99.90;;;;;;5012380;28;20601;-71
2021/10/28 06:53:44;;;;;;;42.67;28.90;;;8.60;99.90;;;;;;5041907;28;20061;-71
2021/10/28 07:04:00;;;;;;;39.50;28.13;;;8.60;99.90;;;;;;5001739;28;20516;-71
2021/10/28 07:06:27;;;;;;;37.25;27.20;;;8.60;99.90;;;;;;5017253;28;20414;-71
2021/10/28 07:08:58;;;;;;;40.90;29.45;;;8.60;99.90;;;;;;5020809;28;20680;-71
2021/10/28 07:11:28;;;;;;;40.30;28.17;;;8.60;99.90;;;;;;5024984;28;20041;-71
2021/10/28 07:13:56;;;;;;;37.85;28.35;;;8.60;99.90;;;;;;5024055;28;20045;-71
2021/10/28 07:16:58;;;;;;;41.42;28.27;;;8.60;99.90;;;;;;5027973;28;20508;-71
2021/10/28 07:22:10;;;;;;;42.13;30.38;;;8.60;99.90;;;;;;5016072;28;20048;-71
2021/10/28 07:32:40;;;;;;;35.80;27.00;;;8.80;99.90;;;;;;5024697;28;20084;-72
2021/10/28 08:13:32;;;;;;;33.55;23.92;;;9.50;99.90;;;;;;5020413;28;20521;-71
2021/10/28 08:18:59;;;;;;;28.95;21.38;;;9.60;99.90;;;;;;5029603;28;20045;-71
2021/10/28 08:21:34;;;;;;;29.60;22.90;;;9.80;99.90;;;;;;5025968;28;20178;-72
2021/10/28 08:24:07;;;;;;;26.42;20.40;;;9.80;99.90;;;;;;5028818;28;20667;-72
2021/10/28 08:29:23;;;;;;;30.63;21.27;;;10.00;99.90;;;;;;5048127;28;20457;-72
2021/10/28 08:31:54;;;;;;;27.30;22.05;;;10.20;99.90;;;;;;5016724;28;20052;-72
2021/10/28 08:34:32;;;;;;;29.42;21.02;;;10.30;99.90;;;;;;5014715;28;20448;-72
2021/10/28 08:39:35;;;;;;;27.17;20.70;;;10.50;99.90;;;;;;5027273;28;20075;-72
2021/10/28 08:42:06;;;;;;;26.50;19.30;;;10.50;99.90;;;;;;5030687;28;20048;-72
2021/10/28 08:44:36;;;;;;;29.08;19.45;;;10.60;99.90;;;;;;5032240;28;20487;-72
2021/10/28 08:47:02;;;;;;;26.48;19.90;;;10.70;99.90;;;;;;5037125;28;20097;-72
2021/10/28 08:49:33;;;;;;;26.88;20.55;;;10.70;99.90;;;;;;5018293;28;20033;-72
2021/10/28 08:57:21;;;;;;;26.77;18.90;;;10.90;99.90;;;;;;5015112;28;20511;-72
2021/10/28 09:00:19;;;;;;;23.98;19.65;;;11.00;99.90;;;;;;5015893;28;20052;-72
2021/10/28 09:25:30;;;;;;;23.00;18.17;;;11.60;99.90;;;;;;5046949;28;20563;-71
2021/10/28 09:30:43;;;;;;;25.00;19.45;;;11.80;99.90;;;;;;5035377;28;20103;-72
2021/10/28 09:33:38;;;;;;;25.88;18.42;;;11.90;99.90;;;;;;5040116;28;20044;-72
2021/10/28 09:43:33;;;;;;;22.83;18.33;;;11.90;99.90;;;;;;5035456;28;20079;-72
2021/10/28 09:45:30;;;;;;;23.85;18.33;;;12.10;99.90;;;;;;5039049;28;20037;-73
2021/10/28 09:47:40;;;;;;;23.90;18.80;;;12.20;99.90;;;;;;5032509;28;20518;-71
2021/10/28 09:50:24;;;;;;;21.15;17.27;;;12.30;99.90;;;;;;5030090;28;20118;-72
2021/10/28 09:58:25;;;;;;;20.85;15.50;;;12.50;99.90;;;;;;5029893;28;20425;-72
2021/10/28 10:00:51;;;;;;;19.05;15.60;;;12.60;99.90;;;;;;5043434;28;20080;-72
2021/10/28 10:03:29;;;;;;;18.92;14.82;;;12.60;99.90;;;;;;5041598;28;20611;-73
2021/10/28 10:05:59;;;;;;;18.58;14.90;;;12.70;99.90;;;;;;5032191;28;20060;-73
2021/10/28 10:08:25;;;;;;;;;;;12.70;99.90;;;;;;5022545;28;20574;-72
2021/10/28 10:10:52;;;;;;;21.02;15.80;;;12.80;99.90;;;;;;5004390;28;20393;-72
2021/10/28 10:13:22;;;;;;;20.02;14.63;;;12.80;99.90;;;;;;5002767;28;20080;-73
2021/10/28 10:15:56;;;;;;;18.70;14.88;;;12.90;99.90;;;;;;4998216;28;20110;-73
2021/10/28 10:18:24;;;;;;;19.58;14.70;;;13.00;99.90;;;;;;5023136;28;20372;-72
2021/10/28 10:21:06;;;;;;;19.38;13.68;;;13.00;99.90;;;;;;5023446;28;20053;-72
2021/10/28 10:24:00;;;;;;;17.85;13.80;;;13.10;99.90;;;;;;5033054;28;20048;-73
2021/10/28 12:22:47;;;;;;;13.15;7.00;;;15.40;99.90;;;;;;5037807;28;20133;-74
2021/10/28 12:44:15;;;;;;;8.63;6.78;;;15.80;99.90;;;;;;5033791;28;20049;-73
2021/10/28 13:03:58;;;;;;;9.73;7.45;;;16.00;99.90;;;;;;5035715;28;20040;-73
2021/10/28 14:29:15;;;;;;;11.60;9.00;;;15.80;99.90;;;;;;5002295;28;20103;-72
2021/10/28 14:37:04;;;;;;;12.15;9.25;;;15.70;99.90;;;;;;5032609;28;20048;-73
2021/10/28 16:23:15;;;;;;;9.85;7.90;;;13.80;99.90;;;;;;5036668;28;20045;-74
2021/10/28 16:25:41;;;;;;;10.30;7.90;;;13.70;99.90;;;;;;5023009;28;20044;-73
2021/10/28 16:28:07;;;;;;;11.43;8.27;;;13.60;99.90;;;;;;5035217;28;20059;-73
2021/10/28 16:30:34;;;;;;;13.90;8.32;;;13.60;99.90;;;;;;5000391;28;20037;-74
2021/10/28 16:33:00;;;;;;;12.73;8.38;;;13.50;99.90;;;;;;5005686;28;20314;-73
2021/10/28 16:35:26;;;;;;;10.85;8.05;;;13.40;99.90;;;;;;5032546;28;20048;-73
2021/10/28 16:37:52;;;;;;;10.93;8.10;;;13.40;99.90;;;;;;5036105;28;20046;-73
2021/10/28 16:40:19;;;;;;;12.25;7.97;;;13.30;99.90;;;;;;4996360;28;20045;-73
2021/10/28 16:42:45;;;;;;;11.48;8.50;;;13.20;99.90;;;;;;5008725;28;20523;-73
2021/10/28 16:45:11;;;;;;;13.93;8.27;;;13.20;99.90;;;;;;5027458;28;20037;-73
2021/10/28 16:47:37;;;;;;;13.45;8.20;;;13.20;99.90;;;;;;5025770;28;20086;-73
2021/10/28 16:50:04;;;;;;;11.02;8.25;;;13.10;99.90;;;;;;4991691;28;21012;-73
2021/10/28 16:52:30;;;;;;;12.27;8.55;;;13.10;99.90;;;;;;5004913;28;20045;-73
2021/10/28 16:54:56;;;;;;;10.40;8.57;;;13.00;99.90;;;;;;5028974;28;20045;-73
2021/10/28 16:57:22;;;;;;;10.48;7.68;;;13.00;99.90;;;;;;5022432;28;20041;-73
2021/10/28 16:59:48;;;;;;;11.35;8.40;;;12.90;99.90;;;;;;4998785;28;20485;-73
2021/10/28 17:02:14;;;;;;;12.98;8.70;;;12.90;99.90;;;;;;4994574;28;20492;-73
2021/10/28 17:04:40;;;;;;;11.77;8.68;;;12.80;99.90;;;;;;5012713;28;20428;-73
2021/10/28 17:07:06;;;;;;;13.25;9.68;;;12.80;99.90;;;;;;4992538;28;20455;-73
2021/10/28 17:09:33;;;;;;;12.85;10.00;;;12.70;99.90;;;;;;5026315;28;20051;-73
2021/10/28 17:12:03;;;;;;;14.50;9.95;;;12.60;99.90;;;;;;5036669;28;20499;-73
2021/10/28 17:14:29;;;;;;;;;;;12.60;99.90;;;;;;5010167;28;20566;-73
2021/10/28 17:16:54;;;;;;;11.88;9.43;;;12.50;99.90;;;;;;5035993;28;20008;-73
2021/10/28 17:19:21;;;;;;;12.88;9.10;;;12.40;99.90;;;;;;5015816;28;20045;-73
2021/10/28 17:21:48;;;;;;;13.80;9.73;;;12.30;99.90;;;;;;5000455;28;20077;-73
2021/10/28 17:24:26;;;;;;;13.82;10.45;;;12.30;99.90;;;;;;5020870;28;20037;-73
2021/10/28 17:26:52;;;;;;;12.30;10.10;;;12.20;99.90;;;;;;5029350;28;20123;-73
2021/10/28 17:29:18;;;;;;;13.23;10.02;;;12.20;99.90;;;;;;5006687;28;20554;-73
2021/10/28 17:31:44;;;;;;;12.25;9.45;;;12.10;99.90;;;;;;5027552;28;20037;-73
2021/10/28 17:34:09;;;;;;;13.68;10.10;;;12.10;99.90;;;;;;5035026;28;20041;-73
2021/10/28 17:36:35;;;;;;;12.43;9.48;;;12.10;99.90;;;;;;5019036;28;20048;-73
2021/10/28 17:39:02;;;;;;;15.80;11.48;;;12.10;99.90;;;;;;5012255;28;20048;-73
2021/10/28 17:41:28;;;;;;;11.82;10.02;;;12.00;99.90;;;;;;5024445;28;20057;-73
2021/10/28 17:43:56;;;;;;;15.48;10.05;;;12.00;99.90;;;;;;4991432;28;20045;-73
2021/10/28 17:46:25;;;;;;;12.98;10.40;;;12.00;99.90;;;;;;5016428;28;20048;-73
2021/10/28 17:48:52;;;;;;;11.00;9.50;;;12.00;99.90;;;;;;5025131;28;20554;-73
2021/10/28 17:51:18;;;;;;;13.15;9.68;;;12.00;99.90;;;;;;5011804;28;20292;-73
2021/10/28 17:53:45;;;;;;;12.82;10.50;;;12.00;99.90;;;;;;5017037;28;20042;-73
2021/10/28 17:56:15;;;;;;;13.95;10.52;;;12.00;99.90;;;;;;5021310;28;20077;-73
2021/10/28 17:58:41;;;;;;;13.38;10.10;;;11.90;99.90;;;;;;5020651;28;20046;-73
2021/10/28 18:01:08;;;;;;;11.60;9.48;;;11.90;99.90;;;;;;5012265;28;20582;-73
2021/10/28 18:03:34;;;;;;;14.10;10.35;;;11.90;99.90;;;;;;5010246;28;20736;-73
2021/10/28 18:06:01;;;;;;;13.40;9.93;;;11.90;99.90;;;;;;5011463;28;20038;-73
2021/10/28 18:08:27;;;;;;;15.88;10.07;;;11.90;99.90;;;;;;5030976;28;20453;-73
2021/10/28 18:10:53;;;;;;;14.43;11.15;;;11.90;99.90;;;;;;5016079;28;20064;-73
2021/10/28 18:13:19;;;;;;;13.98;10.15;;;11.90;99.90;;;;;;5028848;28;20053;-73
2021/10/28 18:15:46;;;;;;;14.63;11.15;;;11.80;99.90;;;;;;5016245;28;20400;-73
2021/10/28 18:18:12;;;;;;;14.27;10.70;;;11.80;99.90;;;;;;5027522;28;20566;-73
2021/10/28 18:20:40;;;;;;;13.50;11.50;;;11.80;99.90;;;;;;5044309;28;20057;-73
2021/10/28 18:23:07;;;;;;;12.93;11.48;;;11.80;99.90;;;;;;5029610;28;20060;-73
2021/10/28 18:25:34;;;;;;;14.65;10.48;;;11.90;99.90;;;;;;5038007;28;20046;-73
2021/10/28 18:28:01;;;;;;;13.93;10.65;;;11.90;99.90;;;;;;5010104;28;20573;-73
2021/10/28 18:30:29;;;;;;;15.52;10.48;;;11.80;99.90;;;;;;5029922;28;20577;-73
2021/10/28 18:32:55;;;;;;;14.15;10.93;;;11.80;99.90;;;;;;5024651;28;20049;-74
2021/10/28 18:35:21;;;;;;;15.57;10.60;;;11.80;99.90;;;;;;5028223;28;20052;-73
2021/10/28 18:37:49;;;;;;;13.85;10.82;;;11.70;99.90;;;;;;5013222;28;20392;-73
2021/10/28 18:40:16;;;;;;;15.02;10.30;;;11.60;99.90;;;;;;5030904;28;20049;-73
2021/10/28 18:42:43;;;;;;;15.57;11.32;;;11.60;99.90;;;;;;5042050;28;20102;-72
2021/10/28 18:45:10;;;;;;;12.25;10.02;;;11.50;99.90;;;;;;5032673;28;20049;-72
2021/10/28 18:47:36;;;;;;;16.20;11.23;;;11.60;99.90;;;;;;5029944;28;20098;-72
2021/10/28 18:50:05;;;;;;;16.00;10.70;;;11.50;99.90;;;;;;5018301;28;20080;-72
2021/10/28 18:52:31;;;;;;;14.90;11.90;;;11.60;99.90;;;;;;5026624;28;20042;-72
2021/10/28 18:55:03;;;;;;;12.77;10.57;;;11.60;99.90;;;;;;5019612;28;20053;-72
2021/10/28 18:57:32;;;;;;;16.20;11.63;;;11.60;99.90;;;;;;5009920;28;20399;-72
2021/10/28 19:00:04;;;;;;;12.93;10.90;;;11.50;99.90;;;;;;5008096;28;20123;-72
2021/10/28 19:02:32;;;;;;;14.82;11.77;;;11.50;99.90;;;;;;5024084;28;20115;-72
2021/10/28 19:04:58;;;;;;;13.82;11.13;;;11.50;99.90;;;;;;5029744;28;20040;-72
2021/10/28 19:07:24;;;;;;;15.00;12.48;;;11.50;99.90;;;;;;5016812;28;20049;-72
2021/10/28 19:09:50;;;;;;;19.58;12.82;;;11.50;99.90;;;;;;5026352;28;20113;-72
2021/10/28 19:12:16;;;;;;;17.55;12.30;;;11.50;99.90;;;;;;5016567;28;20049;-72
2021/10/28 19:14:43;;;;;;;19.30;12.25;;;11.60;99.90;;;;;;5018930;28;20484;-72
2021/10/28 19:17:10;;;;;;;16.77;12.23;;;11.60;99.90;;;;;;5031676;28;20049;-72
2021/10/28 19:19:36;;;;;;;16.30;12.75;;;11.50;99.90;;;;;;5021034;28;20458;-72
2021/10/28 19:22:03;;;;;;;18.92;13.38;;;11.50;99.90;;;;;;5044548;28;20072;-72
2021/10/28 19:24:29;;;;;;;18.20;13.32;;;11.50;99.90;;;;;;5029717;28;20095;-72
2021/10/28 19:26:55;;;;;;;16.05;13.48;;;11.60;99.90;;;;;;5011529;28;20072;-72
2021/10/28 19:29:22;;;;;;;16.83;14.27;;;11.60;99.90;;;;;;5021193;28;20080;-72
2021/10/28 19:32:04;;;;;;;18.27;14.15;;;11.70;99.90;;;;;;5016068;28;20041;-72
2021/10/28 19:34:36;;;;;;;20.40;14.00;;;11.70;99.90;;;;;;5017020;28;20045;-72
2021/10/28 19:37:13;;;;;;;18.30;14.82;;;11.70;99.90;;;;;;5004428;28;20072;-72
2021/10/28 19:45:24;;;;;;;16.52;14.25;;;11.70;99.90;;;;;;5018432;28;20045;-72
2021/10/28 19:47:49;;;;;;;20.23;15.95;;;11.70;99.90;;;;;;5031190;28;20509;-72
2021/10/28 19:50:15;;;;;;;18.40;14.85;;;11.70;99.90;;;;;;5025048;28;20072;-72
2021/10/28 19:52:42;;;;;;;17.33;13.77;;;11.70;99.90;;;;;;5017754;28;20087;-72
2021/10/28 19:55:09;;;;;;;17.35;14.98;;;11.70;99.90;;;;;;5015885;28;20041;-72
2021/10/28 19:57:38;;;;;;;17.88;15.13;;;11.60;99.90;;;;;;5020225;28;20506;-72
2021/10/28 20:13:06;;;;;;;17.95;15.27;;;11.70;99.90;;;;;;4975776;28;20089;-72
2021/10/28 20:22:09;;;;;;;19.52;15.98;;;11.60;99.90;;;;;;5027808;28;20049;-72
2021/10/28 20:24:35;;;;;;;22.38;16.83;;;11.60;99.90;;;;;;5028225;28;20499;-72
2021/10/28 20:27:04;;;;;;;20.30;16.55;;;11.60;99.90;;;;;;5018272;28;20075;-71
2021/10/28 20:29:30;;;;;;;18.42;16.20;;;11.60;99.90;;;;;;5021262;28;20045;-72
2021/10/28 20:31:56;;;;;;;20.02;17.05;;;11.50;99.90;;;;;;5029786;28;20447;-72
2021/10/28 20:34:35;;;;;;;19.10;16.50;;;11.50;99.90;;;;;;5032226;28;20049;-72
2021/10/28 20:37:09;;;;;;;20.47;16.67;;;11.50;99.90;;;;;;5021760;28;20049;-72
2021/10/28 20:39:41;;;;;;;22.02;17.58;;;11.50;99.90;;;;;;5034261;28;20051;-72
2021/10/28 20:42:09;;;;;;;21.33;16.73;;;11.50;99.90;;;;;;5032073;28;20128;-72
2021/10/28 20:44:35;;;;;;;21.23;18.88;;;11.40;99.90;;;;;;5016602;28;20520;-72
2021/10/28 20:47:05;;;;;;;22.40;17.80;;;11.40;99.90;;;;;;5001144;28;20040;-72
2021/10/28 20:49:31;;;;;;;24.23;18.45;;;11.40;99.90;;;;;;5030518;28;20038;-72
2021/10/28 20:51:57;;;;;;;19.92;17.83;;;11.40;99.90;;;;;;5001763;28;20047;-73
2021/10/28 20:54:25;;;;;;;22.27;18.55;;;11.30;99.90;;;;;;5009453;28;20111;-72
2021/10/28 20:56:53;;;;;;;21.27;17.92;;;11.40;99.90;;;;;;4999756;28;20092;-72
2021/10/28 20:59:19;;;;;;;20.02;17.58;;;11.30;99.90;;;;;;5026299;28;20924;-72
2021/10/28 21:01:46;;;;;;;19.15;17.10;;;11.30;99.90;;;;;;5026731;28;20038;-72
2021/10/28 21:04:13;;;;;;;20.85;17.27;;;11.20;99.90;;;;;;5038818;28;20044;-72
2021/10/28 21:06:39;;;;;;;23.60;19.40;;;11.20;99.90;;;;;;5035507;28;20577;-72
2021/10/28 21:09:06;;;;;;;23.63;19.38;;;11.20;99.90;;;;;;5016099;28;20053;-72
2021/10/28 21:11:37;;;;;;;20.75;18.55;;;11.10;99.90;;;;;;5024118;28;20103;-72
2021/10/28 21:14:07;;;;;;;27.27;19.30;;;11.10;99.90;;;;;;5029783;28;20052;-72
2021/10/28 21:16:33;;;;;;;21.65;18.40;;;11.10;99.90;;;;;;5015050;28;20041;-72
2021/10/28 21:19:02;;;;;;;24.05;19.48;;;11.10;99.90;;;;;;5039627;28;20042;-72
2021/10/28 21:21:32;;;;;;;25.02;19.58;;;11.10;99.90;;;;;;5026231;28;20136;-72
2021/10/28 21:24:01;;;;;;;24.03;20.60;;;11.00;99.90;;;;;;5014950;28;20048;-72
2021/10/28 21:26:27;;;;;;;23.23;18.83;;;11.00;99.90;;;;;;5030153;28;20037;-72
2021/10/28 21:28:54;;;;;;;22.70;19.13;;;11.00;99.90;;;;;;5023472;28;20506;-72
2021/10/28 21:31:20;;;;;;;24.67;20.02;;;11.00;99.90;;;;;;5040246;28;20071;-72
2021/10/28 21:33:45;;;;;;;24.58;19.98;;;10.90;99.90;;;;;;5004388;28;20467;-72
2021/10/28 21:36:11;;;;;;;24.15;19.92;;;10.90;99.90;;;;;;5035438;28;20041;-71
2021/10/28 21:38:38;;;;;;;23.35;18.90;;;10.90;99.90;;;;;;5041076;28;20071;-72
2021/10/28 21:41:05;;;;;;;25.42;19.98;;;10.90;99.90;;;;;;5028711;28;20040;-72
2021/10/28 21:43:32;;;;;;;27.08;20.17;;;10.90;99.90;;;;;;5030781;28;20056;-72
2021/10/28 21:46:01;;;;;;;25.08;20.67;;;10.80;99.90;;;;;;5028577;28;20052;-72
2021/10/28 21:48:27;;;;;;;26.80;19.77;;;10.80;99.90;;;;;;5033392;28;20044;-72
2021/10/28 21:51:02;;;;;;;24.60;21.23;;;10.80;99.90;;;;;;5034670;28;20251;-72
2021/10/28 21:53:32;;;;;;;29.85;21.90;;;10.70;99.90;;;;;;5033573;28;20567;-72
2021/10/28 21:58:47;;;;;;;25.92;21.40;;;10.70;99.90;;;;;;5029749;28;19921;-72
2021/10/28 22:25:30;;;;;;;28.75;22.58;;;10.40;99.90;;;;;;5028401;28;20080;-72
2021/10/28 22:27:56;;;;;;;29.83;23.10;;;10.50;99.90;;;;;;5014300;28;20135;-72